sensor_id;sensor_type;location;lat;lon;timestamp;pressure;altitude;pressure_sealevel;temperature;humidity
31681;BME280;18281;51.364;9.566;2024-03-23T00:56:28;99185.28;;;7.36;100.00
31681;BME280;18281;51.364;9.566;2024-03-23T00:59:21;99174.16;;;7.33;100.00
31681;BME280;18281;51.364;9.566;2024-03-23T01:01:47;99168.56;;;7.39;100.00
31681;BME280;18281;51.364;9.566;2024-03-23T01:04:50;99165.44;;;7.48;100.00
31681;BME280;18281;51.364;9.566;2024-03-23T01:07:23;99173.88;;;7.53;100.00
31681;BME280;18281;51.364;9.566;2024-03-23T01:09:58;99175.66;;;7.37;100.00
31681;BME280;18281;51.364;9.566;2024-03-23T01:12:34;99174.06;;;7.02;100.00
31681;BME280;18281;51.364;9.566;2024-03-23T01:15:42;99173.69;;;6.93;100.00
31681;BME280;18281;51.364;9.566;2024-03-23T01:18:44;99179.09;;;7.21;100.00
31681;BME280;18281;51.364;9.566;2024-03-23T01:21:48;99172.13;;;7.06;100.00
31681;BME280;18281;51.364;9.566;2024-03-23T01:24:14;99168.94;;;7.17;100.00
31681;BME280;18281;51.364;9.566;2024-03-23T01:26:41;99159.31;;;7.17;100.00
31681;BME280;18281;51.364;9.566;2024-03-23T01:29:12;99165.22;;;7.05;100.00
31681;BME280;18281;51.364;9.566;2024-03-23T01:31:44;99153.38;;;7.15;100.00
31681;BME280;18281;51.364;9.566;2024-03-23T01:34:12;99138.84;;;6.94;100.00
31681;BME280;18281;51.364;9.566;2024-03-23T01:36:41;99128.09;;;7.16;100.00
31681;BME280;18281;51.364;9.566;2024-03-23T01:39:06;99112.94;;;7.22;100.00
31681;BME280;18281;51.364;9.566;2024-03-23T01:41:35;99117.41;;;7.04;100.00
31681;BME280;18281;51.364;9.566;2024-03-23T01:44:07;99106.84;;;6.90;100.00
31681;BME280;18281;51.364;9.566;2024-03-23T01:46:43;99113.59;;;6.94;100.00
31681;BME280;18281;51.364;9.566;2024-03-23T01:49:09;99108.50;;;7.09;100.00
31681;BME280;18281;51.364;9.566;2024-03-23T01:51:35;99115.41;;;7.10;100.00
31681;BME280;18281;51.364;9.566;2024-03-23T01:54:07;99112.44;;;7.16;100.00
31681;BME280;18281;51.364;9.566;2024-03-23T01:56:36;99113.59;;;7.26;100.00
31681;BME280;18281;51.364;9.566;2024-03-23T01:59:07;99111.41;;;7.18;100.00
31681;BME280;18281;51.364;9.566;2024-03-23T02:01:35;99119.66;;;6.95;100.00
31681;BME280;18281;51.364;9.566;2024-03-23T02:04:01;99117.66;;;7.00;100.00
31681;BME280;18281;51.364;9.566;2024-03-23T02:06:27;99094.03;;;7.03;100.00
31681;BME280;18281;51.364;9.566;2024-03-23T02:08:53;99089.63;;;7.03;100.00
31681;BME280;18281;51.364;9.566;2024-03-23T02:11:19;99089.72;;;7.02;100.00
31681;BME280;18281;51.364;9.566;2024-03-23T02:13:45;99093.47;;;6.80;100.00
31681;BME280;18281;51.364;9.566;2024-03-23T02:16:13;99093.41;;;6.82;100.00
31681;BME280;18281;51.364;9.566;2024-03-23T02:18:43;99083.69;;;6.68;100.00
31681;BME280;18281;51.364;9.566;2024-03-23T02:21:09;99076.72;;;6.84;100.00
31681;BME280;18281;51.364;9.566;2024-03-23T02:23:34;99073.53;;;6.79;100.00
31681;BME280;18281;51.364;9.566;2024-03-23T02:26:00;99078.94;;;6.76;100.00
31681;BME280;18281;51.364;9.566;2024-03-23T02:28:25;99071.00;;;6.78;100.00
31681;BME280;18281;51.364;9.566;2024-03-23T02:30:51;99079.75;;;6.77;100.00
31681;BME280;18281;51.364;9.566;2024-03-23T02:33:17;99086.75;;;6.76;100.00
31681;BME280;18281;51.364;9.566;2024-03-23T02:35:45;99095.41;;;6.61;100.00
31681;BME280;18281;51.364;9.566;2024-03-23T02:38:20;99100.13;;;6.70;100.00
31681;BME280;18281;51.364;9.566;2024-03-23T02:40:46;99089.69;;;6.70;100.00
31681;BME280;18281;51.364;9.566;2024-03-23T02:43:11;99092.38;;;6.52;100.00
31681;BME280;18281;51.364;9.566;2024-03-23T02:45:37;99086.72;;;6.44;100.00
31681;BME280;18281;51.364;9.566;2024-03-23T02:48:02;99092.38;;;6.52;100.00
31681;BME280;18281;51.364;9.566;2024-03-23T02:50:29;99080.94;;;6.55;100.00
31681;BME280;18281;51.364;9.566;2024-03-23T02:52:54;99078.91;;;6.44;100.00
31681;BME280;18281;51.364;9.566;2024-03-23T02:55:22;99067.59;;;6.44;100.00
31681;BME280;18281;51.364;9.566;2024-03-23T02:57:47;99063.31;;;6.27;100.00
31681;BME280;18281;51.364;9.566;2024-03-23T03:00:13;99064.91;;;6.29;100.00
31681;BME280;18281;51.364;9.566;2024-03-23T03:02:38;99071.78;;;6.30;100.00
31681;BME280;18281;51.364;9.566;2024-03-23T03:05:05;99076.44;;;6.41;100.00
31681;BME280;18281;51.364;9.566;2024-03-23T03:07:31;99072.69;;;6.47;100.00
31681;BME280;18281;51.364;9.566;2024-03-23T03:09:57;99066.25;;;6.36;100.00
31681;BME280;18281;51.364;9.566;2024-03-23T03:12:22;99060.66;;;6.11;100.00
31681;BME280;18281;51.364;9.566;2024-03-23T03:14:48;99052.13;;;6.24;100.00
31681;BME280;18281;51.364;9.566;2024-03-23T03:17:13;99058.91;;;6.11;100.00
31681;BME280;18281;51.364;9.566;2024-03-23T03:19:40;99062.06;;;6.34;100.00
31681;BME280;18281;51.364;9.566;2024-03-23T03:22:05;99064.88;;;6.13;100.00
31681;BME280;18281;51.364;9.566;2024-03-23T03:24:31;99069.16;;;6.14;100.00
31681;BME280;18281;51.364;9.566;2024-03-23T03:26:56;99069.75;;;6.19;100.00
31681;BME280;18281;51.364;9.566;2024-03-23T03:29:23;99059.19;;;6.22;100.00
31681;BME280;18281;51.364;9.566;2024-03-23T03:31:49;99062.84;;;6.36;100.00
31681;BME280;18281;51.364;9.566;2024-03-23T03:34:15;99052.03;;;6.26;100.00
31681;BME280;18281;51.364;9.566;2024-03-23T03:36:43;99043.81;;;6.00;100.00
31681;BME280;18281;51.364;9.566;2024-03-23T03:39:08;99040.31;;;6.01;100.00
31681;BME280;18281;51.364;9.566;2024-03-23T03:41:35;99035.31;;;5.97;100.00
31681;BME280;18281;51.364;9.566;2024-03-23T03:44:00;99039.31;;;6.04;100.00
31681;BME280;18281;51.364;9.566;2024-03-23T03:46:28;99043.03;;;5.98;100.00
31681;BME280;18281;51.364;9.566;2024-03-23T03:48:54;99043.44;;;6.08;100.00
31681;BME280;18281;51.364;9.566;2024-03-23T03:51:19;99047.28;;;5.83;100.00
31681;BME280;18281;51.364;9.566;2024-03-23T03:53:46;99042.94;;;5.84;100.00
31681;BME280;18281;51.364;9.566;2024-03-23T03:56:11;99040.16;;;5.87;100.00
31681;BME280;18281;51.364;9.566;2024-03-23T03:58:37;99036.25;;;5.78;100.00
31681;BME280;18281;51.364;9.566;2024-03-23T04:01:05;99034.59;;;5.77;100.00
31681;BME280;18281;51.364;9.566;2024-03-23T04:03:30;99033.69;;;5.43;100.00
31681;BME280;18281;51.364;9.566;2024-03-23T04:05:56;99034.31;;;5.48;100.00
31681;BME280;18281;51.364;9.566;2024-03-23T04:08:27;99028.19;;;5.49;100.00
31681;BME280;18281;51.364;9.566;2024-03-23T04:10:52;99034.34;;;5.12;100.00
31681;BME280;18281;51.364;9.566;2024-03-23T04:13:17;99033.34;;;5.14;100.00
31681;BME280;18281;51.364;9.566;2024-03-23T04:15:43;99034.03;;;5.18;100.00
31681;BME280;18281;51.364;9.566;2024-03-23T04:18:08;99034.19;;;5.15;100.00
31681;BME280;18281;51.364;9.566;2024-03-23T04:20:34;99026.78;;;5.42;100.00
31681;BME280;18281;51.364;9.566;2024-03-23T04:22:59;99031.59;;;5.32;100.00
31681;BME280;18281;51.364;9.566;2024-03-23T04:25:27;99024.69;;;5.14;100.00
31681;BME280;18281;51.364;9.566;2024-03-23T04:27:52;99022.63;;;5.20;100.00
31681;BME280;18281;51.364;9.566;2024-03-23T04:30:20;99021.97;;;4.98;100.00
31681;BME280;18281;51.364;9.566;2024-03-23T04:32:48;99021.09;;;5.16;100.00
31681;BME280;18281;51.364;9.566;2024-03-23T04:35:14;99023.06;;;5.11;100.00
31681;BME280;18281;51.364;9.566;2024-03-23T04:37:40;99022.75;;;5.00;100.00
31681;BME280;18281;51.364;9.566;2024-03-23T04:40:10;99022.56;;;4.85;100.00
31681;BME280;18281;51.364;9.566;2024-03-23T04:42:36;99021.19;;;4.78;100.00
31681;BME280;18281;51.364;9.566;2024-03-23T04:45:03;99016.06;;;4.77;100.00
31681;BME280;18281;51.364;9.566;2024-03-23T04:47:28;99020.84;;;4.86;100.00
31681;BME280;18281;51.364;9.566;2024-03-23T04:49:54;99024.72;;;4.77;100.00
31681;BME280;18281;51.364;9.566;2024-03-23T04:52:19;99026.44;;;4.59;100.00
31681;BME280;18281;51.364;9.566;2024-03-23T04:54:45;99039.19;;;4.64;100.00
31681;BME280;18281;51.364;9.566;2024-03-23T04:57:10;99031.94;;;4.70;100.00
31681;BME280;18281;51.364;9.566;2024-03-23T04:59:36;99029.13;;;4.75;100.00
31681;BME280;18281;51.364;9.566;2024-03-23T05:02:01;99029.94;;;4.39;100.00
31681;BME280;18281;51.364;9.566;2024-03-23T05:04:28;99034.00;;;4.64;100.00
31681;BME280;18281;51.364;9.566;2024-03-23T05:06:53;99023.00;;;4.76;100.00
31681;BME280;18281;51.364;9.566;2024-03-23T05:09:19;99023.31;;;4.70;100.00
31681;BME280;18281;51.364;9.566;2024-03-23T05:11:45;99014.16;;;4.80;100.00
31681;BME280;18281;51.364;9.566;2024-03-23T05:14:17;99013.78;;;4.51;100.00
31681;BME280;18281;51.364;9.566;2024-03-23T05:16:45;99023.69;;;4.62;100.00
31681;BME280;18281;51.364;9.566;2024-03-23T05:19:10;99019.88;;;4.69;100.00
31681;BME280;18281;51.364;9.566;2024-03-23T05:21:35;99035.09;;;4.77;100.00
31681;BME280;18281;51.364;9.566;2024-03-23T05:24:03;99036.16;;;4.73;100.00
31681;BME280;18281;51.364;9.566;2024-03-23T05:26:29;99044.81;;;4.54;100.00
31681;BME280;18281;51.364;9.566;2024-03-23T05:28:54;99039.41;;;4.40;100.00
31681;BME280;18281;51.364;9.566;2024-03-23T05:31:27;99045.81;;;4.52;100.00
31681;BME280;18281;51.364;9.566;2024-03-23T05:33:53;99047.56;;;4.51;100.00
31681;BME280;18281;51.364;9.566;2024-03-23T05:36:22;99048.91;;;4.41;100.00
31681;BME280;18281;51.364;9.566;2024-03-23T05:38:49;99049.19;;;4.54;100.00
31681;BME280;18281;51.364;9.566;2024-03-23T05:41:14;99049.16;;;4.35;100.00
31681;BME280;18281;51.364;9.566;2024-03-23T05:43:40;99037.78;;;4.37;100.00
31681;BME280;18281;51.364;9.566;2024-03-23T05:46:05;99043.69;;;4.41;100.00
31681;BME280;18281;51.364;9.566;2024-03-23T05:48:31;99044.31;;;3.87;100.00
31681;BME280;18281;51.364;9.566;2024-03-23T05:50:57;99047.09;;;4.03;100.00
31681;BME280;18281;51.364;9.566;2024-03-23T05:53:24;99050.13;;;4.13;100.00
31681;BME280;18281;51.364;9.566;2024-03-23T05:55:50;99046.47;;;4.17;100.00
31681;BME280;18281;51.364;9.566;2024-03-23T05:58:17;99053.03;;;4.26;100.00
31681;BME280;18281;51.364;9.566;2024-03-23T06:00:46;99061.25;;;4.36;100.00
31681;BME280;18281;51.364;9.566;2024-03-23T06:03:11;99068.78;;;4.02;100.00
31681;BME280;18281;51.364;9.566;2024-03-23T06:05:37;99078.88;;;3.89;100.00
31681;BME280;18281;51.364;9.566;2024-03-23T06:08:03;99084.69;;;4.15;100.00
31681;BME280;18281;51.364;9.566;2024-03-23T06:10:28;99088.31;;;3.91;100.00
31681;BME280;18281;51.364;9.566;2024-03-23T06:12:54;99083.41;;;5.56;100.00
31681;BME280;18281;51.364;9.566;2024-03-23T06:15:20;99079.28;;;6.36;100.00
31681;BME280;18281;51.364;9.566;2024-03-23T06:17:45;99087.47;;;6.46;100.00
31681;BME280;18281;51.364;9.566;2024-03-23T06:20:10;99096.72;;;6.36;100.00
31681;BME280;18281;51.364;9.566;2024-03-23T06:22:36;99097.94;;;6.29;100.00
31681;BME280;18281;51.364;9.566;2024-03-23T06:25:02;99090.81;;;6.32;100.00
31681;BME280;18281;51.364;9.566;2024-03-23T06:27:28;99078.13;;;6.42;100.00
31681;BME280;18281;51.364;9.566;2024-03-23T06:29:55;99086.81;;;6.43;100.00
31681;BME280;18281;51.364;9.566;2024-03-23T06:32:23;99095.53;;;6.42;100.00
31681;BME280;18281;51.364;9.566;2024-03-23T06:34:48;99103.69;;;6.35;100.00
31681;BME280;18281;51.364;9.566;2024-03-23T06:37:14;99098.94;;;6.26;100.00
31681;BME280;18281;51.364;9.566;2024-03-23T06:39:39;99095.50;;;6.26;100.00
31681;BME280;18281;51.364;9.566;2024-03-23T06:42:05;99095.94;;;6.00;100.00
31681;BME280;18281;51.364;9.566;2024-03-23T06:44:30;99100.38;;;5.98;100.00
31681;BME280;18281;51.364;9.566;2024-03-23T06:46:56;99115.63;;;5.53;98.36
31681;BME280;18281;51.364;9.566;2024-03-23T06:49:22;99109.66;;;5.86;99.24
31681;BME280;18281;51.364;9.566;2024-03-23T06:51:48;99098.38;;;6.03;100.00
31681;BME280;18281;51.364;9.566;2024-03-23T06:54:13;99099.59;;;6.14;100.00
31681;BME280;18281;51.364;9.566;2024-03-23T06:56:38;99107.94;;;6.20;100.00
31681;BME280;18281;51.364;9.566;2024-03-23T06:59:06;99117.06;;;6.29;100.00
31681;BME280;18281;51.364;9.566;2024-03-23T07:01:32;99124.78;;;6.31;100.00
31681;BME280;18281;51.364;9.566;2024-03-23T07:03:57;99128.13;;;6.33;100.00
31681;BME280;18281;51.364;9.566;2024-03-23T07:06:23;99124.69;;;6.32;100.00
31681;BME280;18281;51.364;9.566;2024-03-23T07:08:48;99115.88;;;6.35;100.00
31681;BME280;18281;51.364;9.566;2024-03-23T07:11:21;99107.88;;;6.38;100.00
31681;BME280;18281;51.364;9.566;2024-03-23T07:13:49;99104.44;;;6.37;100.00
31681;BME280;18281;51.364;9.566;2024-03-23T07:16:14;99118.41;;;6.36;100.00
31681;BME280;18281;51.364;9.566;2024-03-23T07:18:39;99109.66;;;6.37;100.00
31681;BME280;18281;51.364;9.566;2024-03-23T07:21:05;99124.13;;;6.43;100.00
31681;BME280;18281;51.364;9.566;2024-03-23T07:23:32;99113.53;;;6.46;100.00
31681;BME280;18281;51.364;9.566;2024-03-23T07:25:58;99118.59;;;6.49;100.00
31681;BME280;18281;51.364;9.566;2024-03-23T07:28:24;99119.34;;;6.51;100.00
31681;BME280;18281;51.364;9.566;2024-03-23T07:31:03;99127.78;;;6.56;100.00
31681;BME280;18281;51.364;9.566;2024-03-23T07:33:29;99134.59;;;6.59;100.00
31681;BME280;18281;51.364;9.566;2024-03-23T07:35:54;99134.44;;;6.62;100.00
31681;BME280;18281;51.364;9.566;2024-03-23T07:38:20;99144.16;;;6.43;100.00
31681;BME280;18281;51.364;9.566;2024-03-23T07:40:45;99139.84;;;6.08;100.00
31681;BME280;18281;51.364;9.566;2024-03-23T07:43:10;99132.72;;;5.77;100.00
31681;BME280;18281;51.364;9.566;2024-03-23T07:45:36;99143.97;;;5.60;100.00
31681;BME280;18281;51.364;9.566;2024-03-23T07:48:03;99142.88;;;5.46;100.00
31681;BME280;18281;51.364;9.566;2024-03-23T07:50:29;99147.38;;;5.43;100.00
31681;BME280;18281;51.364;9.566;2024-03-23T07:52:54;99144.41;;;5.31;100.00
31681;BME280;18281;51.364;9.566;2024-03-23T07:55:19;99149.94;;;5.25;100.00
31681;BME280;18281;51.364;9.566;2024-03-23T07:57:45;99154.38;;;5.04;100.00
31681;BME280;18281;51.364;9.566;2024-03-23T08:00:10;99157.38;;;5.14;100.00
31681;BME280;18281;51.364;9.566;2024-03-23T08:02:38;99167.03;;;5.12;100.00
31681;BME280;18281;51.364;9.566;2024-03-23T08:05:04;99169.75;;;5.09;100.00
31681;BME280;18281;51.364;9.566;2024-03-23T08:07:29;99173.28;;;5.07;100.00
31681;BME280;18281;51.364;9.566;2024-03-23T08:09:55;99172.72;;;5.01;100.00
31681;BME280;18281;51.364;9.566;2024-03-23T08:12:20;99169.63;;;4.93;100.00
31681;BME280;18281;51.364;9.566;2024-03-23T08:14:45;99173.25;;;4.88;100.00
31681;BME280;18281;51.364;9.566;2024-03-23T08:17:11;99168.63;;;4.76;100.00
31681;BME280;18281;51.364;9.566;2024-03-23T08:19:36;99170.06;;;4.83;100.00
31681;BME280;18281;51.364;9.566;2024-03-23T08:22:02;99168.22;;;4.85;100.00
31681;BME280;18281;51.364;9.566;2024-03-23T08:24:27;99169.28;;;4.81;100.00
31681;BME280;18281;51.364;9.566;2024-03-23T08:26:54;99170.53;;;4.72;100.00
31681;BME280;18281;51.364;9.566;2024-03-23T08:29:19;99174.03;;;4.52;100.00
31681;BME280;18281;51.364;9.566;2024-03-23T08:31:45;99174.38;;;4.64;100.00
31681;BME280;18281;51.364;9.566;2024-03-23T08:34:10;99180.09;;;4.72;100.00
31681;BME280;18281;51.364;9.566;2024-03-23T08:36:36;99188.59;;;4.76;100.00
31681;BME280;18281;51.364;9.566;2024-03-23T08:39:01;99196.00;;;4.64;100.00
31681;BME280;18281;51.364;9.566;2024-03-23T08:41:27;99198.44;;;4.48;100.00
31681;BME280;18281;51.364;9.566;2024-03-23T08:43:52;99200.16;;;4.68;100.00
31681;BME280;18281;51.364;9.566;2024-03-23T08:46:17;99197.22;;;4.76;100.00
31681;BME280;18281;51.364;9.566;2024-03-23T08:48:46;99193.78;;;4.76;100.00
31681;BME280;18281;51.364;9.566;2024-03-23T08:51:15;99203.78;;;4.66;100.00
31681;BME280;18281;51.364;9.566;2024-03-23T08:53:41;99199.25;;;4.69;100.00
31681;BME280;18281;51.364;9.566;2024-03-23T08:56:08;99196.38;;;4.36;100.00
31681;BME280;18281;51.364;9.566;2024-03-23T08:58:37;99208.31;;;4.40;100.00
31681;BME280;18281;51.364;9.566;2024-03-23T09:01:10;99200.94;;;4.51;100.00
31681;BME280;18281;51.364;9.566;2024-03-23T09:03:36;99207.41;;;4.41;100.00
31681;BME280;18281;51.364;9.566;2024-03-23T09:06:12;99201.69;;;4.53;100.00
31681;BME280;18281;51.364;9.566;2024-03-23T09:08:40;99211.13;;;4.75;100.00
31681;BME280;18281;51.364;9.566;2024-03-23T09:11:13;99216.91;;;4.42;100.00
31681;BME280;18281;51.364;9.566;2024-03-23T09:13:39;99218.66;;;4.62;100.00
31681;BME280;18281;51.364;9.566;2024-03-23T09:16:05;99222.66;;;4.69;100.00
31681;BME280;18281;51.364;9.566;2024-03-23T09:18:32;99222.41;;;4.76;100.00
31681;BME280;18281;51.364;9.566;2024-03-23T09:20:58;99224.00;;;4.59;100.00
31681;BME280;18281;51.364;9.566;2024-03-23T09:23:23;99225.84;;;4.76;100.00
31681;BME280;18281;51.364;9.566;2024-03-23T09:25:48;99219.94;;;4.72;100.00
31681;BME280;18281;51.364;9.566;2024-03-23T09:28:14;99220.19;;;4.66;100.00
31681;BME280;18281;51.364;9.566;2024-03-23T09:30:39;99223.81;;;4.83;100.00
31681;BME280;18281;51.364;9.566;2024-03-23T09:33:08;99227.44;;;4.99;100.00
31681;BME280;18281;51.364;9.566;2024-03-23T09:35:40;99221.84;;;5.07;100.00
31681;BME280;18281;51.364;9.566;2024-03-23T09:38:06;99220.31;;;5.03;100.00
31681;BME280;18281;51.364;9.566;2024-03-23T09:40:39;99223.81;;;5.02;100.00
31681;BME280;18281;51.364;9.566;2024-03-23T09:43:37;99220.19;;;5.06;100.00
31681;BME280;18281;51.364;9.566;2024-03-23T09:46:05;99223.13;;;5.17;100.00
31681;BME280;18281;51.364;9.566;2024-03-23T09:48:32;99226.88;;;4.93;100.00
31681;BME280;18281;51.364;9.566;2024-03-23T09:50:58;99224.19;;;4.94;100.00
31681;BME280;18281;51.364;9.566;2024-03-23T09:53:24;99214.84;;;5.09;100.00
31681;BME280;18281;51.364;9.566;2024-03-23T09:55:49;99212.94;;;5.32;100.00
31681;BME280;18281;51.364;9.566;2024-03-23T09:58:18;99206.75;;;5.15;100.00
31681;BME280;18281;51.364;9.566;2024-03-23T10:00:44;99199.16;;;5.11;100.00
31681;BME280;18281;51.364;9.566;2024-03-23T10:03:10;99200.50;;;5.19;100.00
31681;BME280;18281;51.364;9.566;2024-03-23T10:05:38;99213.22;;;5.06;100.00
31681;BME280;18281;51.364;9.566;2024-03-23T10:08:17;99217.59;;;5.06;100.00
31681;BME280;18281;51.364;9.566;2024-03-23T10:10:45;99206.38;;;5.23;99.34
31681;BME280;18281;51.364;9.566;2024-03-23T10:13:11;99204.91;;;5.17;98.90
31681;BME280;18281;51.364;9.566;2024-03-23T10:15:39;99212.22;;;5.28;99.19
31681;BME280;18281;51.364;9.566;2024-03-23T10:18:18;99206.91;;;5.50;98.60
31681;BME280;18281;51.364;9.566;2024-03-23T10:20:47;99197.69;;;5.43;100.00
31681;BME280;18281;51.364;9.566;2024-03-23T10:23:16;99186.44;;;5.43;100.00
31681;BME280;18281;51.364;9.566;2024-03-23T10:25:42;99181.16;;;5.44;100.00
31681;BME280;18281;51.364;9.566;2024-03-23T10:28:08;99181.03;;;5.65;100.00
31681;BME280;18281;51.364;9.566;2024-03-23T10:30:35;99190.28;;;5.53;96.41
31681;BME280;18281;51.364;9.566;2024-03-23T10:33:10;99188.59;;;5.14;92.79
31681;BME280;18281;51.364;9.566;2024-03-23T10:35:39;99180.78;;;5.14;91.25
31681;BME280;18281;51.364;9.566;2024-03-23T10:38:06;99180.13;;;5.66;90.76
31681;BME280;18281;51.364;9.566;2024-03-23T10:40:34;99173.94;;;5.86;88.88
31681;BME280;18281;51.364;9.566;2024-03-23T10:43:00;99175.78;;;6.19;88.05
31681;BME280;18281;51.364;9.566;2024-03-23T10:45:25;99165.53;;;6.32;85.90
31681;BME280;18281;51.364;9.566;2024-03-23T10:47:51;99171.81;;;6.45;85.78
31681;BME280;18281;51.364;9.566;2024-03-23T10:50:17;99162.94;;;6.49;85.63
31681;BME280;18281;51.364;9.566;2024-03-23T10:52:46;99160.03;;;6.38;84.91
31681;BME280;18281;51.364;9.566;2024-03-23T10:55:14;99157.69;;;6.16;84.42
31681;BME280;18281;51.364;9.566;2024-03-23T10:57:44;99160.97;;;6.19;83.76
31681;BME280;18281;51.364;9.566;2024-03-23T11:00:12;99154.44;;;6.46;85.80
31681;BME280;18281;51.364;9.566;2024-03-23T11:02:37;99162.75;;;6.52;85.15
31681;BME280;18281;51.364;9.566;2024-03-23T11:07:51;99154.44;;;6.46;83.10
31681;BME280;18281;51.364;9.566;2024-03-23T11:10:28;99155.94;;;5.99;80.21
31681;BME280;18281;51.364;9.566;2024-03-23T11:12:59;99161.88;;;6.18;80.88
31681;BME280;18281;51.364;9.566;2024-03-23T11:15:41;99200.94;;;5.66;78.99
31681;BME280;18281;51.364;9.566;2024-03-23T11:18:07;99185.31;;;5.66;80.75
31681;BME280;18281;51.364;9.566;2024-03-23T11:20:37;99189.81;;;5.81;81.42
31681;BME280;18281;51.364;9.566;2024-03-23T11:23:06;99182.28;;;5.93;82.71
31681;BME280;18281;51.364;9.566;2024-03-23T11:25:33;99183.69;;;6.00;83.93
31681;BME280;18281;51.364;9.566;2024-03-23T11:28:10;99187.81;;;5.86;84.62
31681;BME280;18281;51.364;9.566;2024-03-23T11:30:36;99191.34;;;5.85;85.50
31681;BME280;18281;51.364;9.566;2024-03-23T11:33:03;99182.28;;;6.10;86.04
31681;BME280;18281;51.364;9.566;2024-03-23T11:38:09;99192.41;;;6.67;86.54
31681;BME280;18281;51.364;9.566;2024-03-23T11:40:36;99195.47;;;6.91;85.50
31681;BME280;18281;51.364;9.566;2024-03-23T11:43:06;99214.16;;;6.50;86.46
31681;BME280;18281;51.364;9.566;2024-03-23T11:45:36;99211.34;;;6.20;87.39
31681;BME280;18281;51.364;9.566;2024-03-23T11:50:29;99202.53;;;6.40;85.59
31681;BME280;18281;51.364;9.566;2024-03-23T11:53:18;99185.50;;;6.15;84.47
31681;BME280;18281;51.364;9.566;2024-03-23T11:55:46;99184.28;;;6.40;84.22
31681;BME280;18281;51.364;9.566;2024-03-23T11:58:13;99162.41;;;6.43;83.63
31681;BME280;18281;51.364;9.566;2024-03-23T12:00:39;99156.53;;;6.21;82.70
31681;BME280;18281;51.364;9.566;2024-03-23T12:03:05;99150.31;;;6.24;82.15
31681;BME280;18281;51.364;9.566;2024-03-23T12:05:34;99147.31;;;6.32;82.27
31681;BME280;18281;51.364;9.566;2024-03-23T12:08:16;99225.22;;;6.03;81.83
31681;BME280;18281;51.364;9.566;2024-03-23T12:10:44;99268.16;;;5.19;85.83
31681;BME280;18281;51.364;9.566;2024-03-23T12:13:17;99275.13;;;5.38;86.70
31681;BME280;18281;51.364;9.566;2024-03-23T12:15:44;99269.63;;;5.25;86.56
31681;BME280;18281;51.364;9.566;2024-03-23T12:18:09;99261.03;;;5.23;88.80
31681;BME280;18281;51.364;9.566;2024-03-23T12:20:35;99255.03;;;5.42;89.33
31681;BME280;18281;51.364;9.566;2024-03-23T12:23:05;99235.47;;;5.52;89.29
31681;BME280;18281;51.364;9.566;2024-03-23T12:25:30;99225.31;;;5.07;90.73
31681;BME280;18281;51.364;9.566;2024-03-23T12:27:59;99189.03;;;5.04;92.75
31681;BME280;18281;51.364;9.566;2024-03-23T12:30:24;99182.44;;;4.97;93.68
31681;BME280;18281;51.364;9.566;2024-03-23T12:32:49;99174.03;;;5.29;93.04
31681;BME280;18281;51.364;9.566;2024-03-23T12:35:15;99178.81;;;5.38;92.15
31681;BME280;18281;51.364;9.566;2024-03-23T12:37:40;99179.03;;;5.52;91.75
31681;BME280;18281;51.364;9.566;2024-03-23T12:40:07;99182.09;;;5.61;90.63
31681;BME280;18281;51.364;9.566;2024-03-23T12:42:35;99188.09;;;5.63;90.98
31681;BME280;18281;51.364;9.566;2024-03-23T12:45:00;99189.34;;;5.90;91.03
31681;BME280;18281;51.364;9.566;2024-03-23T12:47:30;99187.22;;;5.99;90.55
31681;BME280;18281;51.364;9.566;2024-03-23T12:49:55;99186.78;;;6.42;89.26
31681;BME280;18281;51.364;9.566;2024-03-23T12:52:21;99163.81;;;7.31;100.00
31681;BME280;18281;51.364;9.566;2024-03-23T12:54:48;99166.31;;;8.10;100.00
31681;BME280;18281;51.364;9.566;2024-03-23T12:57:13;99159.03;;;8.45;100.00
31681;BME280;18281;51.364;9.566;2024-03-23T12:59:39;99168.63;;;8.45;99.26
31681;BME280;18281;51.364;9.566;2024-03-23T13:02:04;99154.16;;;8.08;93.59
31681;BME280;18281;51.364;9.566;2024-03-23T13:04:30;99148.88;;;7.80;88.92
31681;BME280;18281;51.364;9.566;2024-03-23T13:07:00;99158.81;;;7.43;88.31
31681;BME280;18281;51.364;9.566;2024-03-23T13:09:26;99162.94;;;7.15;85.91
31681;BME280;18281;51.364;9.566;2024-03-23T13:12:01;99147.28;;;7.15;84.67
31681;BME280;18281;51.364;9.566;2024-03-23T13:14:29;99167.41;;;7.13;84.73
31681;BME280;18281;51.364;9.566;2024-03-23T13:16:57;99162.72;;;7.19;83.48
31681;BME280;18281;51.364;9.566;2024-03-23T13:19:22;99160.19;;;7.02;82.29
31681;BME280;18281;51.364;9.566;2024-03-23T13:21:54;99152.63;;;6.80;81.33
31681;BME280;18281;51.364;9.566;2024-03-23T13:24:24;99140.53;;;6.95;82.60
31681;BME280;18281;51.364;9.566;2024-03-23T13:26:50;99136.84;;;6.99;83.55
31681;BME280;18281;51.364;9.566;2024-03-23T13:29:15;99124.78;;;6.80;82.57
31681;BME280;18281;51.364;9.566;2024-03-23T13:31:41;99119.81;;;6.91;83.20
31681;BME280;18281;51.364;9.566;2024-03-23T13:34:12;99113.25;;;6.84;81.66
31681;BME280;18281;51.364;9.566;2024-03-23T13:36:43;99132.75;;;6.77;80.73
31681;BME280;18281;51.364;9.566;2024-03-23T13:39:08;99167.94;;;6.70;80.87
31681;BME280;18281;51.364;9.566;2024-03-23T13:41:46;99188.63;;;6.39;80.41
31681;BME280;18281;51.364;9.566;2024-03-23T13:44:12;99196.53;;;6.20;79.30
31681;BME280;18281;51.364;9.566;2024-03-23T13:46:43;99192.25;;;6.19;80.49
31681;BME280;18281;51.364;9.566;2024-03-23T13:49:32;99194.94;;;7.02;87.14
31681;BME280;18281;51.364;9.566;2024-03-23T13:51:58;99212.03;;;7.72;87.74
31681;BME280;18281;51.364;9.566;2024-03-23T13:54:24;99239.50;;;8.10;82.15
31681;BME280;18281;51.364;9.566;2024-03-23T13:56:51;99244.75;;;7.94;79.08
31681;BME280;18281;51.364;9.566;2024-03-23T13:59:16;99246.47;;;7.15;78.27
31681;BME280;18281;51.364;9.566;2024-03-23T14:01:43;99249.72;;;6.69;78.36
31681;BME280;18281;51.364;9.566;2024-03-23T14:04:08;99232.94;;;6.39;79.61
31681;BME280;18281;51.364;9.566;2024-03-23T14:06:33;99227.66;;;6.06;80.80
31681;BME280;18281;51.364;9.566;2024-03-23T14:08:59;99215.78;;;6.00;81.94